sensor_id;sensor_type;location;lat;lon;timestamp;P1;durP1;ratioP1;P2;durP2;ratioP2
33491;SDS011;20010;51.488;7.232;2022-08-20T00:00:36;24.05;;;21.60;;
33491;SDS011;20010;51.488;7.232;2022-08-20T00:03:06;24.55;;;21.77;;
33491;SDS011;20010;51.488;7.232;2022-08-20T00:08:05;28.63;;;22.23;;
33491;SDS011;20010;51.488;7.232;2022-08-20T00:10:33;25.25;;;21.52;;
33491;SDS011;20010;51.488;7.232;2022-08-20T00:13:03;24.48;;;21.70;;
33491;SDS011;20010;51.488;7.232;2022-08-20T00:15:33;29.08;;;22.85;;
33491;SDS011;20010;51.488;7.232;2022-08-20T00:18:01;25.70;;;22.17;;
33491;SDS011;20010;51.488;7.232;2022-08-20T00:20:30;25.67;;;22.92;;
33491;SDS011;20010;51.488;7.232;2022-08-20T00:22:59;29.02;;;24.63;;
33491;SDS011;20010;51.488;7.232;2022-08-20T00:25:27;27.02;;;22.98;;
33491;SDS011;20010;51.488;7.232;2022-08-20T00:27:55;27.40;;;23.60;;
33491;SDS011;20010;51.488;7.232;2022-08-20T00:30:24;29.05;;;23.38;;
33491;SDS011;20010;51.488;7.232;2022-08-20T00:32:54;28.55;;;25.38;;
33491;SDS011;20010;51.488;7.232;2022-08-20T00:35:25;28.60;;;25.60;;
33491;SDS011;20010;51.488;7.232;2022-08-20T00:37:53;25.58;;;22.83;;
33491;SDS011;20010;51.488;7.232;2022-08-20T00:40:39;28.77;;;25.77;;
33491;SDS011;20010;51.488;7.232;2022-08-20T00:43:27;30.67;;;27.30;;
33491;SDS011;20010;51.488;7.232;2022-08-20T00:45:55;27.75;;;24.95;;
33491;SDS011;20010;51.488;7.232;2022-08-20T00:48:26;28.38;;;25.27;;
33491;SDS011;20010;51.488;7.232;2022-08-20T00:51:11;31.02;;;27.83;;
33491;SDS011;20010;51.488;7.232;2022-08-20T00:53:46;31.98;;;28.38;;
33491;SDS011;20010;51.488;7.232;2022-08-20T00:56:13;32.40;;;27.85;;
33491;SDS011;20010;51.488;7.232;2022-08-20T00:58:40;31.50;;;27.88;;
33491;SDS011;20010;51.488;7.232;2022-08-20T01:01:10;33.83;;;29.95;;
33491;SDS011;20010;51.488;7.232;2022-08-20T01:03:38;32.13;;;28.60;;
33491;SDS011;20010;51.488;7.232;2022-08-20T01:06:07;32.83;;;28.02;;
33491;SDS011;20010;51.488;7.232;2022-08-20T01:08:37;30.20;;;26.98;;
33491;SDS011;20010;51.488;7.232;2022-08-20T01:11:05;31.77;;;28.38;;
33491;SDS011;20010;51.488;7.232;2022-08-20T01:13:37;31.23;;;27.88;;
33491;SDS011;20010;51.488;7.232;2022-08-20T01:16:08;32.17;;;27.90;;
33491;SDS011;20010;51.488;7.232;2022-08-20T01:18:42;31.70;;;27.15;;
33491;SDS011;20010;51.488;7.232;2022-08-20T01:21:11;30.35;;;27.15;;
33491;SDS011;20010;51.488;7.232;2022-08-20T01:23:50;28.83;;;25.60;;
33491;SDS011;20010;51.488;7.232;2022-08-20T01:28:58;29.48;;;26.38;;
33491;SDS011;20010;51.488;7.232;2022-08-20T01:31:28;30.17;;;26.90;;
33491;SDS011;20010;51.488;7.232;2022-08-20T01:34:03;30.25;;;27.05;;
33491;SDS011;20010;51.488;7.232;2022-08-20T01:36:35;29.90;;;26.75;;
33491;SDS011;20010;51.488;7.232;2022-08-20T01:39:13;29.58;;;26.20;;
33491;SDS011;20010;51.488;7.232;2022-08-20T01:44:38;29.83;;;26.80;;
33491;SDS011;20010;51.488;7.232;2022-08-20T01:47:13;30.05;;;26.95;;
33491;SDS011;20010;51.488;7.232;2022-08-20T01:49:47;33.50;;;28.27;;
33491;SDS011;20010;51.488;7.232;2022-08-20T01:54:58;30.80;;;26.73;;
33491;SDS011;20010;51.488;7.232;2022-08-20T01:57:26;28.50;;;25.48;;
33491;SDS011;20010;51.488;7.232;2022-08-20T01:59:54;29.65;;;26.52;;
33491;SDS011;20010;51.488;7.232;2022-08-20T02:02:21;27.73;;;24.77;;
33491;SDS011;20010;51.488;7.232;2022-08-20T02:04:49;29.13;;;26.02;;
33491;SDS011;20010;51.488;7.232;2022-08-20T02:07:17;29.98;;;26.70;;
33491;SDS011;20010;51.488;7.232;2022-08-20T02:09:47;30.80;;;27.50;;
33491;SDS011;20010;51.488;7.232;2022-08-20T02:12:15;31.88;;;26.92;;
33491;SDS011;20010;51.488;7.232;2022-08-20T02:14:44;28.67;;;25.52;;
33491;SDS011;20010;51.488;7.232;2022-08-20T02:17:17;30.23;;;26.95;;
33491;SDS011;20010;51.488;7.232;2022-08-20T02:19:53;28.20;;;25.30;;
33491;SDS011;20010;51.488;7.232;2022-08-20T02:25:21;29.15;;;25.92;;
33491;SDS011;20010;51.488;7.232;2022-08-20T02:27:50;28.27;;;25.35;;
33491;SDS011;20010;51.488;7.232;2022-08-20T02:30:24;27.77;;;24.85;;
33491;SDS011;20010;51.488;7.232;2022-08-20T02:32:56;32.05;;;28.02;;
33491;SDS011;20010;51.488;7.232;2022-08-20T02:35:24;28.95;;;25.33;;
33491;SDS011;20010;51.488;7.232;2022-08-20T02:37:52;28.25;;;25.00;;
33491;SDS011;20010;51.488;7.232;2022-08-20T02:40:20;30.10;;;25.67;;
33491;SDS011;20010;51.488;7.232;2022-08-20T02:42:56;26.30;;;23.48;;
33491;SDS011;20010;51.488;7.232;2022-08-20T02:45:24;28.25;;;25.30;;
33491;SDS011;20010;51.488;7.232;2022-08-20T02:47:52;28.40;;;24.80;;
33491;SDS011;20010;51.488;7.232;2022-08-20T02:50:21;28.73;;;25.67;;
33491;SDS011;20010;51.488;7.232;2022-08-20T02:52:49;33.50;;;28.05;;
33491;SDS011;20010;51.488;7.232;2022-08-20T02:55:17;30.40;;;27.20;;
33491;SDS011;20010;51.488;7.232;2022-08-20T02:57:53;30.77;;;27.55;;
33491;SDS011;20010;51.488;7.232;2022-08-20T03:00:24;30.40;;;27.10;;
33491;SDS011;20010;51.488;7.232;2022-08-20T03:02:52;29.10;;;25.05;;
33491;SDS011;20010;51.488;7.232;2022-08-20T03:05:19;29.80;;;26.60;;
33491;SDS011;20010;51.488;7.232;2022-08-20T03:07:47;27.20;;;24.48;;
33491;SDS011;20010;51.488;7.232;2022-08-20T03:10:26;28.55;;;25.55;;
33491;SDS011;20010;51.488;7.232;2022-08-20T03:12:55;28.55;;;25.67;;
33491;SDS011;20010;51.488;7.232;2022-08-20T03:15:24;29.95;;;26.52;;
33491;SDS011;20010;51.488;7.232;2022-08-20T03:17:52;27.13;;;24.25;;
33491;SDS011;20010;51.488;7.232;2022-08-20T03:20:19;27.05;;;24.13;;
33491;SDS011;20010;51.488;7.232;2022-08-20T03:25:16;26.38;;;22.95;;
33491;SDS011;20010;51.488;7.232;2022-08-20T03:27:43;26.50;;;23.65;;
33491;SDS011;20010;51.488;7.232;2022-08-20T03:30:19;26.33;;;23.02;;
33491;SDS011;20010;51.488;7.232;2022-08-20T03:32:46;26.17;;;23.35;;
33491;SDS011;20010;51.488;7.232;2022-08-20T03:35:14;24.58;;;22.00;;
33491;SDS011;20010;51.488;7.232;2022-08-20T03:37:42;25.05;;;22.13;;
33491;SDS011;20010;51.488;7.232;2022-08-20T03:40:17;25.48;;;22.15;;
33491;SDS011;20010;51.488;7.232;2022-08-20T03:42:47;24.27;;;21.67;;
33491;SDS011;20010;51.488;7.232;2022-08-20T03:45:14;28.23;;;23.55;;
33491;SDS011;20010;51.488;7.232;2022-08-20T03:47:45;27.20;;;23.80;;
33491;SDS011;20010;51.488;7.232;2022-08-20T03:50:13;28.90;;;24.83;;
33491;SDS011;20010;51.488;7.232;2022-08-20T03:52:52;27.90;;;24.42;;
33491;SDS011;20010;51.488;7.232;2022-08-20T03:55:20;31.15;;;25.80;;
33491;SDS011;20010;51.488;7.232;2022-08-20T03:57:49;30.90;;;25.33;;
33491;SDS011;20010;51.488;7.232;2022-08-20T04:00:21;27.20;;;23.85;;
33491;SDS011;20010;51.488;7.232;2022-08-20T04:02:50;28.20;;;24.77;;
33491;SDS011;20010;51.488;7.232;2022-08-20T04:05:17;28.73;;;25.58;;
33491;SDS011;20010;51.488;7.232;2022-08-20T04:07:43;27.20;;;24.30;;
33491;SDS011;20010;51.488;7.232;2022-08-20T04:10:10;29.25;;;25.15;;
33491;SDS011;20010;51.488;7.232;2022-08-20T04:12:38;27.30;;;23.85;;
33491;SDS011;20010;51.488;7.232;2022-08-20T04:15:15;26.02;;;23.15;;
33491;SDS011;20010;51.488;7.232;2022-08-20T04:17:45;23.40;;;20.98;;
33491;SDS011;20010;51.488;7.232;2022-08-20T04:20:14;23.60;;;21.20;;
33491;SDS011;20010;51.488;7.232;2022-08-20T04:22:48;23.08;;;20.75;;
33491;SDS011;20010;51.488;7.232;2022-08-20T04:25:25;21.92;;;19.58;;
33491;SDS011;20010;51.488;7.232;2022-08-20T04:28:02;19.40;;;17.42;;
33491;SDS011;20010;51.488;7.232;2022-08-20T04:30:31;21.35;;;19.02;;
33491;SDS011;20010;51.488;7.232;2022-08-20T04:32:59;19.80;;;17.42;;
33491;SDS011;20010;51.488;7.232;2022-08-20T04:35:26;19.95;;;17.83;;
33491;SDS011;20010;51.488;7.232;2022-08-20T04:38:02;22.50;;;20.30;;
33491;SDS011;20010;51.488;7.232;2022-08-20T04:40:34;22.58;;;18.25;;
33491;SDS011;20010;51.488;7.232;2022-08-20T04:43:24;17.95;;;16.35;;
33491;SDS011;20010;51.488;7.232;2022-08-20T04:46:03;20.63;;;18.52;;
33491;SDS011;20010;51.488;7.232;2022-08-20T04:48:33;19.17;;;17.08;;
33491;SDS011;20010;51.488;7.232;2022-08-20T04:51:06;19.33;;;17.45;;
33491;SDS011;20010;51.488;7.232;2022-08-20T04:53:35;20.70;;;18.67;;
33491;SDS011;20010;51.488;7.232;2022-08-20T04:56:02;19.90;;;17.88;;
33491;SDS011;20010;51.488;7.232;2022-08-20T04:58:30;20.05;;;17.83;;
33491;SDS011;20010;51.488;7.232;2022-08-20T05:01:05;17.85;;;16.15;;
33491;SDS011;20010;51.488;7.232;2022-08-20T05:03:35;20.40;;;17.98;;
33491;SDS011;20010;51.488;7.232;2022-08-20T05:06:04;21.02;;;17.45;;
33491;SDS011;20010;51.488;7.232;2022-08-20T05:08:32;20.77;;;18.35;;
33491;SDS011;20010;51.488;7.232;2022-08-20T05:11:01;20.05;;;18.02;;
33491;SDS011;20010;51.488;7.232;2022-08-20T05:13:48;20.50;;;18.20;;
33491;SDS011;20010;51.488;7.232;2022-08-20T05:16:18;22.02;;;19.60;;
33491;SDS011;20010;51.488;7.232;2022-08-20T05:18:45;22.15;;;19.83;;
33491;SDS011;20010;51.488;7.232;2022-08-20T05:21:18;23.70;;;21.20;;
33491;SDS011;20010;51.488;7.232;2022-08-20T05:23:46;24.88;;;20.85;;
33491;SDS011;20010;51.488;7.232;2022-08-20T05:26:14;22.88;;;20.52;;
33491;SDS011;20010;51.488;7.232;2022-08-20T05:28:42;23.50;;;20.83;;
33491;SDS011;20010;51.488;7.232;2022-08-20T05:31:27;27.20;;;21.88;;
33491;SDS011;20010;51.488;7.232;2022-08-20T05:33:59;25.50;;;22.00;;
33491;SDS011;20010;51.488;7.232;2022-08-20T05:36:27;27.65;;;22.30;;
33491;SDS011;20010;51.488;7.232;2022-08-20T05:38:54;24.17;;;21.35;;
33491;SDS011;20010;51.488;7.232;2022-08-20T05:41:22;25.88;;;21.77;;
33491;SDS011;20010;51.488;7.232;2022-08-20T05:43:55;24.92;;;21.90;;
33491;SDS011;20010;51.488;7.232;2022-08-20T05:46:26;26.52;;;22.60;;
33491;SDS011;20010;51.488;7.232;2022-08-20T05:48:54;27.13;;;22.45;;
33491;SDS011;20010;51.488;7.232;2022-08-20T05:53:52;27.65;;;22.20;;
33491;SDS011;20010;51.488;7.232;2022-08-20T05:56:22;27.15;;;24.13;;
33491;SDS011;20010;51.488;7.232;2022-08-20T05:58:52;28.58;;;23.60;;
33491;SDS011;20010;51.488;7.232;2022-08-20T06:01:19;25.05;;;21.85;;
33491;SDS011;20010;51.488;7.232;2022-08-20T06:03:46;27.42;;;22.65;;
33491;SDS011;20010;51.488;7.232;2022-08-20T06:06:32;31.02;;;23.75;;
33491;SDS011;20010;51.488;7.232;2022-08-20T06:09:12;30.33;;;26.05;;
33491;SDS011;20010;51.488;7.232;2022-08-20T06:12:01;28.13;;;24.92;;
33491;SDS011;20010;51.488;7.232;2022-08-20T06:14:31;30.83;;;24.70;;
33491;SDS011;20010;51.488;7.232;2022-08-20T06:17:03;27.33;;;22.50;;
33491;SDS011;20010;51.488;7.232;2022-08-20T06:19:41;25.77;;;22.98;;
33491;SDS011;20010;51.488;7.232;2022-08-20T06:22:09;29.45;;;25.05;;
33491;SDS011;20010;51.488;7.232;2022-08-20T06:27:17;24.27;;;21.67;;
33491;SDS011;20010;51.488;7.232;2022-08-20T06:29:44;28.33;;;22.95;;
33491;SDS011;20010;51.488;7.232;2022-08-20T06:32:10;24.70;;;22.13;;
33491;SDS011;20010;51.488;7.232;2022-08-20T06:34:37;25.02;;;21.73;;
33491;SDS011;20010;51.488;7.232;2022-08-20T06:37:17;24.52;;;21.98;;
33491;SDS011;20010;51.488;7.232;2022-08-20T06:39:47;24.63;;;22.02;;
33491;SDS011;20010;51.488;7.232;2022-08-20T06:42:14;22.90;;;20.58;;
33491;SDS011;20010;51.488;7.232;2022-08-20T06:44:47;24.48;;;21.73;;
33491;SDS011;20010;51.488;7.232;2022-08-20T06:47:19;24.48;;;21.88;;
33491;SDS011;20010;51.488;7.232;2022-08-20T06:49:46;26.48;;;23.05;;
33491;SDS011;20010;51.488;7.232;2022-08-20T06:52:14;25.77;;;23.00;;
33491;SDS011;20010;51.488;7.232;2022-08-20T06:54:43;22.52;;;20.23;;
33491;SDS011;20010;51.488;7.232;2022-08-20T06:57:10;23.05;;;20.85;;
33491;SDS011;20010;51.488;7.232;2022-08-20T06:59:37;21.83;;;19.58;;
33491;SDS011;20010;51.488;7.232;2022-08-20T07:02:05;23.58;;;21.17;;
33491;SDS011;20010;51.488;7.232;2022-08-20T07:04:32;22.92;;;20.17;;
33491;SDS011;20010;51.488;7.232;2022-08-20T07:06:59;23.02;;;20.73;;
33491;SDS011;20010;51.488;7.232;2022-08-20T07:09:26;23.05;;;20.77;;
33491;SDS011;20010;51.488;7.232;2022-08-20T07:11:53;24.08;;;21.48;;
33491;SDS011;20010;51.488;7.232;2022-08-20T07:14:20;25.70;;;22.90;;
33491;SDS011;20010;51.488;7.232;2022-08-20T07:16:47;27.17;;;24.25;;
33491;SDS011;20010;51.488;7.232;2022-08-20T07:19:15;24.90;;;22.52;;
33491;SDS011;20010;51.488;7.232;2022-08-20T07:21:41;25.10;;;22.30;;
33491;SDS011;20010;51.488;7.232;2022-08-20T07:24:08;25.35;;;22.77;;
33491;SDS011;20010;51.488;7.232;2022-08-20T07:26:35;26.08;;;23.58;;
33491;SDS011;20010;51.488;7.232;2022-08-20T07:29:02;25.88;;;23.20;;
33491;SDS011;20010;51.488;7.232;2022-08-20T07:31:29;23.52;;;21.20;;
33491;SDS011;20010;51.488;7.232;2022-08-20T07:34:15;23.67;;;21.25;;
33491;SDS011;20010;51.488;7.232;2022-08-20T07:36:44;24.42;;;21.80;;
33491;SDS011;20010;51.488;7.232;2022-08-20T07:39:14;24.35;;;21.92;;
33491;SDS011;20010;51.488;7.232;2022-08-20T07:41:41;24.70;;;22.33;;
33491;SDS011;20010;51.488;7.232;2022-08-20T07:44:16;26.48;;;23.88;;
33491;SDS011;20010;51.488;7.232;2022-08-20T07:46:57;27.20;;;24.67;;
33491;SDS011;20010;51.488;7.232;2022-08-20T07:49:24;26.23;;;23.55;;
33491;SDS011;20010;51.488;7.232;2022-08-20T07:51:52;25.23;;;22.73;;
33491;SDS011;20010;51.488;7.232;2022-08-20T07:54:19;23.65;;;21.30;;
33491;SDS011;20010;51.488;7.232;2022-08-20T07:56:46;23.70;;;21.38;;
33491;SDS011;20010;51.488;7.232;2022-08-20T07:59:14;22.23;;;20.10;;
33491;SDS011;20010;51.488;7.232;2022-08-20T08:01:41;22.52;;;20.40;;
33491;SDS011;20010;51.488;7.232;2022-08-20T08:04:08;21.83;;;19.75;;
33491;SDS011;20010;51.488;7.232;2022-08-20T08:06:35;22.73;;;20.10;;
33491;SDS011;20010;51.488;7.232;2022-08-20T08:09:09;20.67;;;18.77;;
33491;SDS011;20010;51.488;7.232;2022-08-20T08:11:39;19.10;;;17.27;;
33491;SDS011;20010;51.488;7.232;2022-08-20T08:14:13;20.05;;;18.25;;
33491;SDS011;20010;51.488;7.232;2022-08-20T08:16:48;19.58;;;17.98;;
33491;SDS011;20010;51.488;7.232;2022-08-20T08:19:18;19.80;;;17.77;;
33491;SDS011;20010;51.488;7.232;2022-08-20T08:21:45;19.83;;;18.15;;
33491;SDS011;20010;51.488;7.232;2022-08-20T08:24:12;20.95;;;18.75;;
33491;SDS011;20010;51.488;7.232;2022-08-20T08:26:46;20.02;;;18.33;;
33491;SDS011;20010;51.488;7.232;2022-08-20T08:29:17;20.10;;;18.25;;
33491;SDS011;20010;51.488;7.232;2022-08-20T08:31:44;19.42;;;17.40;;
33491;SDS011;20010;51.488;7.232;2022-08-20T08:34:11;18.17;;;16.65;;
33491;SDS011;20010;51.488;7.232;2022-08-20T08:36:38;19.33;;;17.70;;
33491;SDS011;20010;51.488;7.232;2022-08-20T08:39:05;22.08;;;19.88;;
33491;SDS011;20010;51.488;7.232;2022-08-20T08:41:36;19.58;;;17.77;;
33491;SDS011;20010;51.488;7.232;2022-08-20T08:44:16;20.20;;;18.20;;
33491;SDS011;20010;51.488;7.232;2022-08-20T08:46:59;18.42;;;16.92;;
33491;SDS011;20010;51.488;7.232;2022-08-20T08:49:50;19.30;;;17.70;;
33491;SDS011;20010;51.488;7.232;2022-08-20T08:52:18;21.05;;;19.25;;
33491;SDS011;20010;51.488;7.232;2022-08-20T08:54:51;22.98;;;20.83;;
33491;SDS011;20010;51.488;7.232;2022-08-20T08:57:19;27.95;;;25.48;;
33491;SDS011;20010;51.488;7.232;2022-08-20T08:59:47;26.05;;;23.48;;
33491;SDS011;20010;51.488;7.232;2022-08-20T09:02:33;26.58;;;24.17;;
33491;SDS011;20010;51.488;7.232;2022-08-20T09:05:11;24.33;;;22.02;;
33491;SDS011;20010;51.488;7.232;2022-08-20T09:07:41;23.95;;;21.77;;
33491;SDS011;20010;51.488;7.232;2022-08-20T09:10:14;23.85;;;21.85;;
33491;SDS011;20010;51.488;7.232;2022-08-20T09:12:48;23.38;;;21.45;;
33491;SDS011;20010;51.488;7.232;2022-08-20T09:15:17;23.13;;;21.35;;
33491;SDS011;20010;51.488;7.232;2022-08-20T09:17:50;23.63;;;21.63;;
33491;SDS011;20010;51.488;7.232;2022-08-20T09:20:19;21.80;;;20.10;;
33491;SDS011;20010;51.488;7.232;2022-08-20T09:22:52;22.33;;;20.52;;
33491;SDS011;20010;51.488;7.232;2022-08-20T09:25:19;22.50;;;20.60;;
33491;SDS011;20010;51.488;7.232;2022-08-20T09:27:46;22.60;;;20.65;;
33491;SDS011;20010;51.488;7.232;2022-08-20T09:30:16;28.15;;;25.58;;
33491;SDS011;20010;51.488;7.232;2022-08-20T09:32:43;30.85;;;28.17;;
33491;SDS011;20010;51.488;7.232;2022-08-20T09:35:10;34.67;;;31.48;;
33491;SDS011;20010;51.488;7.232;2022-08-20T09:37:38;32.42;;;29.33;;
33491;SDS011;20010;51.488;7.232;2022-08-20T09:40:06;32.65;;;29.77;;
33491;SDS011;20010;51.488;7.232;2022-08-20T09:42:35;33.63;;;30.45;;
33491;SDS011;20010;51.488;7.232;2022-08-20T09:45:07;33.30;;;30.10;;
33491;SDS011;20010;51.488;7.232;2022-08-20T09:47:36;33.08;;;29.75;;
33491;SDS011;20010;51.488;7.232;2022-08-20T09:50:07;33.95;;;30.52;;
33491;SDS011;20010;51.488;7.232;2022-08-20T09:52:35;32.38;;;29.27;;
33491;SDS011;20010;51.488;7.232;2022-08-20T09:55:17;33.65;;;30.15;;
33491;SDS011;20010;51.488;7.232;2022-08-20T09:57:51;33.60;;;30.20;;
33491;SDS011;20010;51.488;7.232;2022-08-20T10:00:18;36.38;;;32.90;;
33491;SDS011;20010;51.488;7.232;2022-08-20T10:02:46;35.92;;;32.42;;
33491;SDS011;20010;51.488;7.232;2022-08-20T10:05:13;39.15;;;34.60;;
33491;SDS011;20010;51.488;7.232;2022-08-20T10:07:40;38.88;;;33.70;;
33491;SDS011;20010;51.488;7.232;2022-08-20T10:10:09;35.30;;;31.58;;
33491;SDS011;20010;51.488;7.232;2022-08-20T10:12:39;34.00;;;30.88;;
33491;SDS011;20010;51.488;7.232;2022-08-20T10:15:07;33.60;;;30.38;;
33491;SDS011;20010;51.488;7.232;2022-08-20T10:17:38;31.25;;;28.38;;
33491;SDS011;20010;51.488;7.232;2022-08-20T10:20:08;30.65;;;27.55;;
33491;SDS011;20010;51.488;7.232;2022-08-20T10:22:37;32.28;;;28.98;;
33491;SDS011;20010;51.488;7.232;2022-08-20T10:25:04;29.27;;;26.48;;
33491;SDS011;20010;51.488;7.232;2022-08-20T10:27:32;30.92;;;28.02;;
33491;SDS011;20010;51.488;7.232;2022-08-20T10:30:01;31.23;;;27.88;;
33491;SDS011;20010;51.488;7.232;2022-08-20T10:32:29;30.25;;;27.45;;
33491;SDS011;20010;51.488;7.232;2022-08-20T10:34:56;30.60;;;27.83;;
33491;SDS011;20010;51.488;7.232;2022-08-20T10:37:23;32.20;;;29.08;;
33491;SDS011;20010;51.488;7.232;2022-08-20T10:39:51;32.38;;;29.48;;
33491;SDS011;20010;51.488;7.232;2022-08-20T10:42:19;33.05;;;29.77;;
33491;SDS011;20010;51.488;7.232;2022-08-20T10:44:46;33.92;;;30.50;;
33491;SDS011;20010;51.488;7.232;2022-08-20T10:49:41;31.17;;;28.25;;
33491;SDS011;20010;51.488;7.232;2022-08-20T10:52:09;31.67;;;28.77;;
33491;SDS011;20010;51.488;7.232;2022-08-20T10:54:36;32.75;;;29.85;;
33491;SDS011;20010;51.488;7.232;2022-08-20T10:57:08;27.73;;;25.10;;
33491;SDS011;20010;51.488;7.232;2022-08-20T10:59:40;29.42;;;26.55;;
33491;SDS011;20010;51.488;7.232;2022-08-20T11:02:08;28.30;;;25.77;;
33491;SDS011;20010;51.488;7.232;2022-08-20T11:04:35;28.73;;;26.10;;
33491;SDS011;20010;51.488;7.232;2022-08-20T11:10:21;26.08;;;23.75;;
33491;SDS011;20010;51.488;7.232;2022-08-20T11:12:50;25.45;;;23.10;;
33491;SDS011;20010;51.488;7.232;2022-08-20T11:15:17;24.55;;;22.35;;
33491;SDS011;20010;51.488;7.232;2022-08-20T11:17:45;24.50;;;22.33;;
33491;SDS011;20010;51.488;7.232;2022-08-20T11:20:13;23.85;;;21.35;;
33491;SDS011;20010;51.488;7.232;2022-08-20T11:22:43;24.08;;;21.88;;
33491;SDS011;20010;51.488;7.232;2022-08-20T11:25:10;20.63;;;18.92;;
33491;SDS011;20010;51.488;7.232;2022-08-20T11:27:39;19.83;;;18.15;;
33491;SDS011;20010;51.488;7.232;2022-08-20T11:30:10;20.38;;;18.55;;
33491;SDS011;20010;51.488;7.232;2022-08-20T11:32:42;19.63;;;17.92;;
33491;SDS011;20010;51.488;7.232;2022-08-20T11:35:10;20.90;;;19.10;;
33491;SDS011;20010;51.488;7.232;2022-08-20T11:37:57;19.15;;;17.17;;
33491;SDS011;20010;51.488;7.232;2022-08-20T11:40:25;19.30;;;17.45;;
33491;SDS011;20010;51.488;7.232;2022-08-20T11:42:56;21.02;;;18.92;;
33491;SDS011;20010;51.488;7.232;2022-08-20T11:45:40;21.67;;;19.42;;
33491;SDS011;20010;51.488;7.232;2022-08-20T11:48:09;19.63;;;17.85;;
33491;SDS011;20010;51.488;7.232;2022-08-20T11:50:36;19.48;;;17.48;;
33491;SDS011;20010;51.488;7.232;2022-08-20T11:53:03;17.85;;;16.42;;
33491;SDS011;20010;51.488;7.232;2022-08-20T11:55:30;20.17;;;17.15;;
33491;SDS011;20010;51.488;7.232;2022-08-20T11:57:57;19.65;;;17.83;;
33491;SDS011;20010;51.488;7.232;2022-08-20T12:00:26;20.00;;;18.05;;
33491;SDS011;20010;51.488;7.232;2022-08-20T12:03:03;20.30;;;18.60;;
33491;SDS011;20010;51.488;7.232;2022-08-20T12:05:34;22.15;;;19.83;;
33491;SDS011;20010;51.488;7.232;2022-08-20T12:08:02;19.92;;;18.02;;
33491;SDS011;20010;51.488;7.232;2022-08-20T12:10:30;20.95;;;17.48;;
33491;SDS011;20010;51.488;7.232;2022-08-20T12:12:57;19.40;;;17.42;;
33491;SDS011;20010;51.488;7.232;2022-08-20T12:15:24;19.13;;;17.23;;
33491;SDS011;20010;51.488;7.232;2022-08-20T12:17:53;18.42;;;16.63;;
33491;SDS011;20010;51.488;7.232;2022-08-20T12:20:21;18.10;;;16.42;;
33491;SDS011;20010;51.488;7.232;2022-08-20T12:22:49;20.48;;;15.13;;
33491;SDS011;20010;51.488;7.232;2022-08-20T12:25:17;18.85;;;17.08;;
33491;SDS011;20010;51.488;7.232;2022-08-20T12:27:45;17.75;;;15.95;;
33491;SDS011;20010;51.488;7.232;2022-08-20T12:30:14;17.77;;;15.95;;
33491;SDS011;20010;51.488;7.232;2022-08-20T12:32:46;17.35;;;15.93;;
33491;SDS011;20010;51.488;7.232;2022-08-20T12:35:14;18.45;;;16.75;;
33491;SDS011;20010;51.488;7.232;2022-08-20T12:37:42;17.77;;;16.08;;
33491;SDS011;20010;51.488;7.232;2022-08-20T12:40:11;17.90;;;16.27;;
33491;SDS011;20010;51.488;7.232;2022-08-20T12:45:08;16.98;;;15.48;;
33491;SDS011;20010;51.488;7.232;2022-08-20T12:47:37;16.60;;;15.18;;
33491;SDS011;20010;51.488;7.232;2022-08-20T12:50:07;16.98;;;15.40;;
33491;SDS011;20010;51.488;7.232;2022-08-20T12:52:36;19.05;;;17.20;;
33491;SDS011;20010;51.488;7.232;2022-08-20T12:55:05;17.88;;;16.20;;
33491;SDS011;20010;51.488;7.232;2022-08-20T12:57:44;17.60;;;15.97;;
33491;SDS011;20010;51.488;7.232;2022-08-20T13:00:15;18.13;;;16.43;;
33491;SDS011;20010;51.488;7.232;2022-08-20T13:02:49;16.33;;;14.82;;
33491;SDS011;20010;51.488;7.232;2022-08-20T13:05:18;17.50;;;15.88;;
33491;SDS011;20010;51.488;7.232;2022-08-20T13:07:46;16.42;;;14.60;;
33491;SDS011;20010;51.488;7.232;2022-08-20T13:10:30;16.83;;;15.38;;
33491;SDS011;20010;51.488;7.232;2022-08-20T13:13:01;17.25;;;15.75;;
33491;SDS011;20010;51.488;7.232;2022-08-20T13:15:33;15.75;;;14.45;;
33491;SDS011;20010;51.488;7.232;2022-08-20T13:18:09;15.98;;;14.38;;
33491;SDS011;20010;51.488;7.232;2022-08-20T13:20:36;15.60;;;14.20;;
33491;SDS011;20010;51.488;7.232;2022-08-20T13:23:03;15.65;;;13.95;;
33491;SDS011;20010;51.488;7.232;2022-08-20T13:25:31;14.43;;;12.98;;
33491;SDS011;20010;51.488;7.232;2022-08-20T13:27:59;14.20;;;12.90;;
33491;SDS011;20010;51.488;7.232;2022-08-20T13:30:29;16.58;;;15.07;;
33491;SDS011;20010;51.488;7.232;2022-08-20T13:32:57;11.55;;;10.75;;
33491;SDS011;20010;51.488;7.232;2022-08-20T13:35:24;10.88;;;9.90;;
33491;SDS011;20010;51.488;7.232;2022-08-20T13:40:22;12.93;;;11.73;;
33491;SDS011;20010;51.488;7.232;2022-08-20T13:42:48;11.38;;;10.52;;
33491;SDS011;20010;51.488;7.232;2022-08-20T13:45:15;12.52;;;11.45;;
33491;SDS011;20010;51.488;7.232;2022-08-20T13:47:42;12.25;;;11.15;;
33491;SDS011;20010;51.488;7.232;2022-08-20T13:52:39;9.60;;;8.73;;
33491;SDS011;20010;51.488;7.232;2022-08-20T13:55:08;9.02;;;8.30;;
33491;SDS011;20010;51.488;7.232;2022-08-20T13:57:50;11.23;;;10.13;;
33491;SDS011;20010;51.488;7.232;2022-08-20T14:00:27;12.50;;;11.40;;
33491;SDS011;20010;51.488;7.232;2022-08-20T14:02:58;12.87;;;11.60;;
33491;SDS011;20010;51.488;7.232;2022-08-20T14:05:32;12.23;;;11.32;;
33491;SDS011;20010;51.488;7.232;2022-08-20T14:08:10;13.05;;;12.05;;
33491;SDS011;20010;51.488;7.232;2022-08-20T14:10:40;13.20;;;12.00;;
33491;SDS011;20010;51.488;7.232;2022-08-20T14:13:08;12.80;;;11.82;;
33491;SDS011;20010;51.488;7.232;2022-08-20T14:15:42;12.45;;;11.30;;
33491;SDS011;20010;51.488;7.232;2022-08-20T14:18:14;11.32;;;10.27;;
33491;SDS011;20010;51.488;7.232;2022-08-20T14:20:47;11.77;;;10.57;;
33491;SDS011;20010;51.488;7.232;2022-08-20T14:23:17;9.25;;;8.45;;
33491;SDS011;20010;51.488;7.232;2022-08-20T14:25:46;9.23;;;8.43;;
33491;SDS011;20010;51.488;7.232;2022-08-20T14:28:20;10.65;;;9.13;;
33491;SDS011;20010;51.488;7.232;2022-08-20T14:30:50;9.77;;;9.00;;
33491;SDS011;20010;51.488;7.232;2022-08-20T14:33:27;9.40;;;8.60;;
33491;SDS011;20010;51.488;7.232;2022-08-20T14:35:56;8.60;;;7.90;;
33491;SDS011;20010;51.488;7.232;2022-08-20T14:38:26;9.05;;;8.18;;
33491;SDS011;20010;51.488;7.232;2022-08-20T14:40:54;8.88;;;7.93;;
33491;SDS011;20010;51.488;7.232;2022-08-20T14:43:22;8.70;;;7.95;;
33491;SDS011;20010;51.488;7.232;2022-08-20T14:49:40;8.60;;;7.43;;
33491;SDS011;20010;51.488;7.232;2022-08-20T14:52:11;8.85;;;7.57;;
33491;SDS011;20010;51.488;7.232;2022-08-20T14:54:42;8.38;;;7.60;;
33491;SDS011;20010;51.488;7.232;2022-08-20T14:57:13;7.72;;;7.10;;
33491;SDS011;20010;51.488;7.232;2022-08-20T14:59:48;8.43;;;7.63;;
33491;SDS011;20010;51.488;7.232;2022-08-20T15:02:21;7.40;;;6.80;;
33491;SDS011;20010;51.488;7.232;2022-08-20T15:04:49;7.25;;;6.65;;
33491;SDS011;20010;51.488;7.232;2022-08-20T15:07:25;7.82;;;7.30;;
33491;SDS011;20010;51.488;7.232;2022-08-20T15:10:07;8.43;;;7.63;;
33491;SDS011;20010;51.488;7.232;2022-08-20T15:12:38;8.55;;;7.75;;
33491;SDS011;20010;51.488;7.232;2022-08-20T15:15:14;9.27;;;7.72;;
33491;SDS011;20010;51.488;7.232;2022-08-20T15:17:49;10.60;;;7.75;;
33491;SDS011;20010;51.488;7.232;2022-08-20T15:20:28;8.48;;;7.72;;